Swinomish — WC5223 — position and weather

sailwx.info

Track history (hours):
 
Tides and Currents Weather Stations Pressure Air Temp Water Temp Dewpoint Dewpoint Depression Visibility Wind Speed Wind Dir Waves Ship Positions

Swinomish

Owner: DUNLAP TOWING CO, LA CONNER, WA. More information available from US FCC via Universal Licensing System and Coast Guard Vessel Documentation Center.

Last reported at 2015-Jul-29 04:33 UTC. Time now 2015-Jul-29 04:50 UTC.
Position N 47°59' W 122°14'.

Length 15 m; draft 3.5 m.

Type: Tug. MMSI: 366972050.

Date/timePositionNaut miles runAvg speedWind from/ knotsBaromVisibWave heightAir tempDewpointWater temp
2015-Jul-29 04:33N 47°59' W 122°14'2 2.4
2015-Jul-29 03:33N 47°58' W 122°17'2 2.1
2015-Jul-29 02:34N 47°57' W 122°20'2 2.1
2015-Jul-29 01:33N 47°55' W 122°21'2 2.2
2015-Jul-29 00:33N 47°53' W 122°22'3 2.8
2015-Jul-28 23:33N 47°50' W 122°24'3 2.7
2015-Jul-28 22:34N 47°47' W 122°25'3 2.6
2015-Jul-28 21:34N 47°45' W 122°25'2 2.3
2015-Jul-28 20:33N 47°43' W 122°28'2 1.7
2015-Jul-28 19:33N 47°42' W 122°29'2 2.1
2015-Jul-28 18:33N 47°40' W 122°29'2 2.4
2015-Jul-28 17:34N 47°37' W 122°29'2 2.2
2015-Jul-28 16:34N 47°35' W 122°28'2 2.0
2015-Jul-28 15:33N 47°33' W 122°28'3 3.2
2015-Jul-28 14:33N 47°30' W 122°30'4 3.9
2015-Jul-28 13:34N 47°26' W 122°31'3 3.3
2015-Jul-28 12:33N 47°23' W 122°32'4 3.5
2015-Jul-28 11:33N 47°19' W 122°33'4 4.1
2015-Jul-28 10:33N 47°15' W 122°34'4 0.8
2015-Jul-28 05:33N 47°13' W 122°38'7 2.1
2015-Jul-28 02:22N 47°10' W 122°47'4 0.2
2015-Jul-27 07:33N 47°11' W 122°41'2 2.4
2015-Jul-27 06:33N 47°12' W 122°37'3 3.0
2015-Jul-27 05:33N 47°15' W 122°34'3 3.3
2015-Jul-27 04:33N 47°17' W 122°32'2 1.9
2015-Jul-27 03:33N 47°19' W 122°33'2 1.9
2015-Jul-27 02:33N 47°18' W 122°30'0 0.5
2015-Jul-27 01:33N 47°18' W 122°30'0 0.5
2015-Jul-27 00:33N 47°18' W 122°29'1 0.9
2015-Jul-26 23:33N 47°17' W 122°28'1 0.6
2015-Jul-26 22:33N 47°17' W 122°28'0 0.5
2015-Jul-26 21:34N 47°17' W 122°28'0 0.4
2015-Jul-26 20:34N 47°18' W 122°29'1 0.6
2015-Jul-26 19:33N 47°18' W 122°29'0 0.2
2015-Jul-26 18:33N 47°18' W 122°29'1 1.1
2015-Jul-26 17:34N 47°17' W 122°28'1 0.7
2015-Jul-26 16:34N 47°18' W 122°29'1 0.9
2015-Jul-26 15:33N 47°18' W 122°30'2 1.9
2015-Jul-26 14:34N 47°20' W 122°28'2 1.8
2015-Jul-26 13:33N 47°21' W 122°26'2 1.7
2015-Jul-26 12:33N 47°22' W 122°24'1 1.4
2015-Jul-26 11:33N 47°23' W 122°23'1 1.2
2015-Jul-26 10:33N 47°24' W 122°23'2 1.6
2015-Jul-26 09:33N 47°25' W 122°24'2 1.7
2015-Jul-26 08:33N 47°27' W 122°25'2 1.7
2015-Jul-26 07:33N 47°29' W 122°26'2 2.1
2015-Jul-26 06:33N 47°31' W 122°27'2 2.2
2015-Jul-26 05:33N 47°33' W 122°28'2 2.4
2015-Jul-26 04:33N 47°35' W 122°28'2 2.4
2015-Jul-26 03:34N 47°37' W 122°29'2 2.2
2015-Jul-26 02:34N 47°40' W 122°30'2 2.2
2015-Jul-26 01:33N 47°42' W 122°29'2 2.0
2015-Jul-26 00:33N 47°44' W 122°28'2 2.0
2015-Jul-25 23:33N 47°45' W 122°26'2 2.1
2015-Jul-25 22:33N 47°47' W 122°25'2 2.2
2015-Jul-25 21:34N 47°49' W 122°24'2 2.0
2015-Jul-25 20:33N 47°51' W 122°23'2 2.1
2015-Jul-25 19:34N 47°53' W 122°22'2 2.0
2015-Jul-25 18:34N 47°55' W 122°21'2 2.2
2015-Jul-25 17:33N 47°57' W 122°19'2 2.2
2015-Jul-25 16:33N 47°58' W 122°17'2 2.2
2015-Jul-25 15:33N 47°59' W 122°14'0 0.4
2015-Jul-25 14:33N 47°59' W 122°13'0 0.0
2015-Jul-25 13:34N 47°59' W 122°13'0 0.0
2015-Jul-25 12:34N 47°59' W 122°13'0 0.1
2015-Jul-25 11:33N 47°59' W 122°13'0 0.0
2015-Jul-25 10:33N 47°59' W 122°13'0 0.1
2015-Jul-25 09:34N 47°59' W 122°13'1 0.6
2015-Jul-25 08:34N 47°58' W 122°14'1 0.7
2015-Jul-25 07:34N 47°59' W 122°15'2 1.5
2015-Jul-25 06:33N 47°60' W 122°17'2 1.7
2015-Jul-25 05:20N 48°01' W 122°19'2 1.6
2015-Jul-25 04:14N 48°02' W 122°21'1 1.4
2015-Jul-25 03:28N 48°03' W 122°22'1 1.3
2015-Jul-25 02:33N 48°03' W 122°24'2 1.5
2015-Jul-25 01:33N 48°04' W 122°25'1 1.4
2015-Jul-25 00:31N 48°05' W 122°27'11 1.2
2015-Jul-24 15:27N 48°15' W 122°33'2 2.0
2015-Jul-24 14:32N 48°17' W 122°31'2 1.9
2015-Jul-24 13:30N 48°18' W 122°30'3 3.2
2015-Jul-24 12:32N 48°21' W 122°33'3 2.2
2015-Jul-24 11:07N 48°24' W 122°35'1 1.4
2015-Jul-24 10:28N 48°24' W 122°35'1 1.3
2015-Jul-24 09:31N 48°26' W 122°34'0 0.0
2015-Jul-24 08:28N 48°26' W 122°34'0 0.0
2015-Jul-24 06:29N 48°26' W 122°34'0 0.0
2015-Jul-24 05:27N 48°26' W 122°34'0 0.0
2015-Jul-24 04:23N 48°26' W 122°34'0 0.0
2015-Jul-24 03:22N 48°26' W 122°34'0 0.0
2015-Jul-24 02:34N 48°26' W 122°34'0 0.1
2015-Jul-24 01:26N 48°25' W 122°34'0 0.5
2015-Jul-24 00:30N 48°26' W 122°34'2 1.6
2015-Jul-23 23:14N 48°25' W 122°37'1 1.7
2015-Jul-23 22:30N 48°24' W 122°38'1 0.8
2015-Jul-23 21:31N 48°24' W 122°39'1 0.7
2015-Jul-23 20:16N 48°25' W 122°40'1 1.1
2015-Jul-23 19:31N 48°26' W 122°41'1 0.9
2015-Jul-23 18:34N 48°27' W 122°41'1 1.3
2015-Jul-23 17:34N 48°28' W 122°40'1 0.9
2015-Jul-23 16:33N 48°29' W 122°41'0 0.2
2015-Jul-23 15:33N 48°29' W 122°41'0 0.0
2015-Jul-23 14:34N 48°29' W 122°41'0 0.0
2015-Jul-23 13:34N 48°29' W 122°41'0 0.0
2015-Jul-23 12:33N 48°29' W 122°41'0 0.1
2015-Jul-23 11:34N 48°29' W 122°41'0 0.0
2015-Jul-23 10:34N 48°29' W 122°41'0 0.0
2015-Jul-23 09:33N 48°29' W 122°41'0 0.1
2015-Jul-23 08:34N 48°29' W 122°41'0 0.1
2015-Jul-23 07:34N 48°29' W 122°41'0 0.1
2015-Jul-23 06:33N 48°29' W 122°41'0 0.0
2015-Jul-23 05:34N 48°29' W 122°41'0 0.0
2015-Jul-23 04:34N 48°29' W 122°41'0 0.0
2015-Jul-23 03:33N 48°29' W 122°41'0 0.0
2015-Jul-23 02:33N 48°29' W 122°41'0 0.0
2015-Jul-23 01:34N 48°29' W 122°41'0 0.0
2015-Jul-23 00:33N 48°29' W 122°41'0 0.0
2015-Jul-22 23:33N 48°29' W 122°41'0 0.0
2015-Jul-22 22:33N 48°29' W 122°41'0 0.0
2015-Jul-22 21:33N 48°29' W 122°41'0 0.0
2015-Jul-22 20:34N 48°29' W 122°41'0 0.1
2015-Jul-22 19:34N 48°29' W 122°41'1 1.1
2015-Jul-22 18:34N 48°29' W 122°42'1 1.4
2015-Jul-22 17:34N 48°30' W 122°44'1 1.4
2015-Jul-22 16:33N 48°31' W 122°46'1 0.9
2015-Jul-22 15:34N 48°32' W 122°47'1 1.4
2015-Jul-22 14:34N 48°32' W 122°49'1 1.3
2015-Jul-22 13:34N 48°31' W 122°51'1 1.3
2015-Jul-22 12:33N 48°30' W 122°52'0 0.0
2015-Jul-22 11:33N 48°30' W 122°52'0 0.0
2015-Jul-22 10:34N 48°30' W 122°52'0 0.0
2015-Jul-22 09:34N 48°30' W 122°52'0 0.0
2015-Jul-22 08:33N 48°30' W 122°52'0 0.0
2015-Jul-22 07:34N 48°30' W 122°52'0 0.0
2015-Jul-22 06:34N 48°30' W 122°52'0 0.0
2015-Jul-22 05:33N 48°30' W 122°52'0 0.0
2015-Jul-22 04:34N 48°30' W 122°52'0 0.0
2015-Jul-22 03:34N 48°30' W 122°52'0 0.0
2015-Jul-22 02:34N 48°30' W 122°52'0 0.0
2015-Jul-22 01:34N 48°30' W 122°52'0 0.0
2015-Jul-22 00:34N 48°30' W 122°52'0 0.0
2015-Jul-21 23:34N 48°30' W 122°52'0 0.0
2015-Jul-21 22:34N 48°30' W 122°52'0 0.0
2015-Jul-21 21:34N 48°30' W 122°52'0 0.0
2015-Jul-21 20:33N 48°30' W 122°52'0 0.0
2015-Jul-21 19:33N 48°30' W 122°52'0 0.0
2015-Jul-21 18:33N 48°30' W 122°52'0 0.0
2015-Jul-21 17:34N 48°30' W 122°52'0 0.0
2015-Jul-21 16:34N 48°30' W 122°52'0 0.0
2015-Jul-21 15:33N 48°30' W 122°52'0 0.0
2015-Jul-21 14:33N 48°30' W 122°52'0 0.0
2015-Jul-21 13:34N 48°30' W 122°52'0 0.0
2015-Jul-21 12:34N 48°30' W 122°52'0 0.0
2015-Jul-21 11:33N 48°30' W 122°52'0 0.0
2015-Jul-21 10:34N 48°30' W 122°52'0 0.0
2015-Jul-21 09:33N 48°30' W 122°52'0 0.0
2015-Jul-21 08:32N 48°30' W 122°52'0 0.0
2015-Jul-21 07:34N 48°30' W 122°52'0 0.0
2015-Jul-21 06:33N 48°30' W 122°52'0 0.0
2015-Jul-21 05:34N 48°30' W 122°52'0 0.0
2015-Jul-21 04:33N 48°30' W 122°52'0 0.0
2015-Jul-21 03:34N 48°30' W 122°52'1 0.6
2015-Jul-21 02:32N 48°31' W 122°52'0 0.5
2015-Jul-21 01:33N 48°31' W 122°51'0 0.2
2015-Jul-21 00:33N 48°31' W 122°51'0 0.2
2015-Jul-20 23:33N 48°31' W 122°51'0 0.2
2015-Jul-20 22:33N 48°31' W 122°51'0 0.1
2015-Jul-20 21:33N 48°31' W 122°51'0 0.0
2015-Jul-20 20:33N 48°31' W 122°51'0 0.0
2015-Jul-20 19:33N 48°31' W 122°51'0 0.0
2015-Jul-20 18:33N 48°31' W 122°51'0 0.0
2015-Jul-20 17:33N 48°31' W 122°51'0 0.0
2015-Jul-20 16:33N 48°31' W 122°51'0 0.0
2015-Jul-20 15:33N 48°31' W 122°51'0 0.0
2015-Jul-20 14:33N 48°31' W 122°51'0 0.0
2015-Jul-20 13:33N 48°31' W 122°51'0 0.0
2015-Jul-20 12:33N 48°31' W 122°51'0 0.0
2015-Jul-20 11:33N 48°31' W 122°51'0 0.0
2015-Jul-20 10:33N 48°31' W 122°51'0 0.0
2015-Jul-20 09:33N 48°31' W 122°51'0 0.0
2015-Jul-20 08:33N 48°31' W 122°51'0 0.0
2015-Jul-20 07:33N 48°31' W 122°51'0 0.0
2015-Jul-20 06:33N 48°31' W 122°51'0 0.0
2015-Jul-20 05:32N 48°31' W 122°51'0 0.0
2015-Jul-20 04:33N 48°31' W 122°51'0 0.0
2015-Jul-20 03:33N 48°31' W 122°51'0 0.0
2015-Jul-20 02:33N 48°31' W 122°51'0 0.0
2015-Jul-20 01:33N 48°31' W 122°51'0 0.0
2015-Jul-20 00:33N 48°31' W 122°51'0 0.0
2015-Jul-19 23:33N 48°31' W 122°51'0 0.0
2015-Jul-19 22:33N 48°31' W 122°51'0 0.0
2015-Jul-19 21:33N 48°31' W 122°51'0 0.1
2015-Jul-19 20:33N 48°31' W 122°51'0 0.5
2015-Jul-19 19:33N 48°32' W 122°51'2 1.8
2015-Jul-19 18:33N 48°33' W 122°51'1 1.3
2015-Jul-19 17:33N 48°34' W 122°52'1 1.1
2015-Jul-19 16:33N 48°35' W 122°54'2 1.9
2015-Jul-19 15:33N 48°35' W 122°56'1 1.4
2015-Jul-19 14:33N 48°36' W 122°58'1 1.1
2015-Jul-19 13:33N 48°35' W 123°00'1 0.9
2015-Jul-19 12:33N 48°36' W 123°00'0 0.0
2015-Jul-19 11:33N 48°36' W 123°00'0 0.0
2015-Jul-19 10:33N 48°36' W 123°00'0 0.0
2015-Jul-19 09:33N 48°36' W 123°00'0 0.0
2015-Jul-19 08:33N 48°36' W 123°00'0 0.0
2015-Jul-19 07:33N 48°36' W 123°00'0 0.0
2015-Jul-19 06:33N 48°36' W 123°00'1 0.9
2015-Jul-19 05:33N 48°37' W 123°02'  
Track history (hours):
 
Tides and Currents Weather Stations Pressure Air Temp Water Temp Dewpoint Dewpoint Depression Visibility Wind Speed Wind Dir Waves Ship Positions

Swinomish

Owner: DUNLAP TOWING CO, LA CONNER, WA. More information available from US FCC via Universal Licensing System and Coast Guard Vessel Documentation Center.

Last reported at 2015-Jul-29 04:33 UTC. Time now 2015-Jul-29 04:50 UTC.
Position N 47°59' W 122°14'.

Length 15 m; draft 3.5 m.

Type: Tug. MMSI: 366972050.

Date/timePositionNaut miles runAvg speedWind from/ knotsBaromVisibWave heightAir tempDewpointWater temp
2015-Jul-29 04:33N 47°59' W 122°14'2 2.4
2015-Jul-29 03:33N 47°58' W 122°17'2 2.1
2015-Jul-29 02:34N 47°57' W 122°20'2 2.1
2015-Jul-29 01:33N 47°55' W 122°21'2 2.2
2015-Jul-29 00:33N 47°53' W 122°22'3 2.8
2015-Jul-28 23:33N 47°50' W 122°24'3 2.7
2015-Jul-28 22:34N 47°47' W 122°25'3 2.6
2015-Jul-28 21:34N 47°45' W 122°25'2 2.3
2015-Jul-28 20:33N 47°43' W 122°28'2 1.7
2015-Jul-28 19:33N 47°42' W 122°29'2 2.1
2015-Jul-28 18:33N 47°40' W 122°29'2 2.4
2015-Jul-28 17:34N 47°37' W 122°29'2 2.2
2015-Jul-28 16:34N 47°35' W 122°28'2 2.0
2015-Jul-28 15:33N 47°33' W 122°28'3 3.2
2015-Jul-28 14:33N 47°30' W 122°30'4 3.9
2015-Jul-28 13:34N 47°26' W 122°31'3 3.3
2015-Jul-28 12:33N 47°23' W 122°32'4 3.5
2015-Jul-28 11:33N 47°19' W 122°33'4 4.1
2015-Jul-28 10:33N 47°15' W 122°34'4 0.8
2015-Jul-28 05:33N 47°13' W 122°38'7 2.1
2015-Jul-28 02:22N 47°10' W 122°47'4 0.2
2015-Jul-27 07:33N 47°11' W 122°41'2 2.4
2015-Jul-27 06:33N 47°12' W 122°37'3 3.0
2015-Jul-27 05:33N 47°15' W 122°34'3 3.3
2015-Jul-27 04:33N 47°17' W 122°32'2 1.9
2015-Jul-27 03:33N 47°19' W 122°33'2 1.9
2015-Jul-27 02:33N 47°18' W 122°30'0 0.5
2015-Jul-27 01:33N 47°18' W 122°30'0 0.5
2015-Jul-27 00:33N 47°18' W 122°29'1 0.9
2015-Jul-26 23:33N 47°17' W 122°28'1 0.6
2015-Jul-26 22:33N 47°17' W 122°28'0 0.5
2015-Jul-26 21:34N 47°17' W 122°28'0 0.4
2015-Jul-26 20:34N 47°18' W 122°29'1 0.6
2015-Jul-26 19:33N 47°18' W 122°29'0 0.2
2015-Jul-26 18:33N 47°18' W 122°29'1 1.1
2015-Jul-26 17:34N 47°17' W 122°28'1 0.7
2015-Jul-26 16:34N 47°18' W 122°29'1 0.9
2015-Jul-26 15:33N 47°18' W 122°30'2 1.9
2015-Jul-26 14:34N 47°20' W 122°28'2 1.8
2015-Jul-26 13:33N 47°21' W 122°26'2 1.7
2015-Jul-26 12:33N 47°22' W 122°24'1 1.4
2015-Jul-26 11:33N 47°23' W 122°23'1 1.2
2015-Jul-26 10:33N 47°24' W 122°23'2 1.6
2015-Jul-26 09:33N 47°25' W 122°24'2 1.7
2015-Jul-26 08:33N 47°27' W 122°25'2 1.7
2015-Jul-26 07:33N 47°29' W 122°26'2 2.1
2015-Jul-26 06:33N 47°31' W 122°27'2 2.2
2015-Jul-26 05:33N 47°33' W 122°28'2 2.4
2015-Jul-26 04:33N 47°35' W 122°28'2 2.4
2015-Jul-26 03:34N 47°37' W 122°29'2 2.2
2015-Jul-26 02:34N 47°40' W 122°30'2 2.2
2015-Jul-26 01:33N 47°42' W 122°29'2 2.0
2015-Jul-26 00:33N 47°44' W 122°28'2 2.0
2015-Jul-25 23:33N 47°45' W 122°26'2 2.1
2015-Jul-25 22:33N 47°47' W 122°25'2 2.2
2015-Jul-25 21:34N 47°49' W 122°24'2 2.0
2015-Jul-25 20:33N 47°51' W 122°23'2 2.1
2015-Jul-25 19:34N 47°53' W 122°22'2 2.0
2015-Jul-25 18:34N 47°55' W 122°21'2 2.2
2015-Jul-25 17:33N 47°57' W 122°19'2 2.2
2015-Jul-25 16:33N 47°58' W 122°17'2 2.2
2015-Jul-25 15:33N 47°59' W 122°14'0 0.4
2015-Jul-25 14:33N 47°59' W 122°13'0 0.0
2015-Jul-25 13:34N 47°59' W 122°13'0 0.0
2015-Jul-25 12:34N 47°59' W 122°13'0 0.1
2015-Jul-25 11:33N 47°59' W 122°13'0 0.0
2015-Jul-25 10:33N 47°59' W 122°13'0 0.1
2015-Jul-25 09:34N 47°59' W 122°13'1 0.6
2015-Jul-25 08:34N 47°58' W 122°14'1 0.7
2015-Jul-25 07:34N 47°59' W 122°15'2 1.5
2015-Jul-25 06:33N 47°60' W 122°17'2 1.7
2015-Jul-25 05:20N 48°01' W 122°19'2 1.6
2015-Jul-25 04:14N 48°02' W 122°21'1 1.4
2015-Jul-25 03:28N 48°03' W 122°22'1 1.3
2015-Jul-25 02:33N 48°03' W 122°24'2 1.5
2015-Jul-25 01:33N 48°04' W 122°25'1 1.4
2015-Jul-25 00:31N 48°05' W 122°27'11 1.2
2015-Jul-24 15:27N 48°15' W 122°33'2 2.0
2015-Jul-24 14:32N 48°17' W 122°31'2 1.9
2015-Jul-24 13:30N 48°18' W 122°30'3 3.2
2015-Jul-24 12:32N 48°21' W 122°33'3 2.2
2015-Jul-24 11:07N 48°24' W 122°35'1 1.4
2015-Jul-24 10:28N 48°24' W 122°35'1 1.3
2015-Jul-24 09:31N 48°26' W 122°34'0 0.0
2015-Jul-24 08:28N 48°26' W 122°34'0 0.0
2015-Jul-24 06:29N 48°26' W 122°34'0 0.0
2015-Jul-24 05:27N 48°26' W 122°34'0 0.0
2015-Jul-24 04:23N 48°26' W 122°34'0 0.0
2015-Jul-24 03:22N 48°26' W 122°34'0 0.0
2015-Jul-24 02:34N 48°26' W 122°34'0 0.1
2015-Jul-24 01:26N 48°25' W 122°34'0 0.5
2015-Jul-24 00:30N 48°26' W 122°34'2 1.6
2015-Jul-23 23:14N 48°25' W 122°37'1 1.7
2015-Jul-23 22:30N 48°24' W 122°38'1 0.8
2015-Jul-23 21:31N 48°24' W 122°39'1 0.7
2015-Jul-23 20:16N 48°25' W 122°40'1 1.1
2015-Jul-23 19:31N 48°26' W 122°41'1 0.9
2015-Jul-23 18:34N 48°27' W 122°41'1 1.3
2015-Jul-23 17:34N 48°28' W 122°40'1 0.9
2015-Jul-23 16:33N 48°29' W 122°41'0 0.2
2015-Jul-23 15:33N 48°29' W 122°41'0 0.0
2015-Jul-23 14:34N 48°29' W 122°41'0 0.0
2015-Jul-23 13:34N 48°29' W 122°41'0 0.0
2015-Jul-23 12:33N 48°29' W 122°41'0 0.1
2015-Jul-23 11:34N 48°29' W 122°41'0 0.0
2015-Jul-23 10:34N 48°29' W 122°41'0 0.0
2015-Jul-23 09:33N 48°29' W 122°41'0 0.1
2015-Jul-23 08:34N 48°29' W 122°41'0 0.1
2015-Jul-23 07:34N 48°29' W 122°41'0 0.1
2015-Jul-23 06:33N 48°29' W 122°41'0 0.0
2015-Jul-23 05:34N 48°29' W 122°41'0 0.0
2015-Jul-23 04:34N 48°29' W 122°41'0 0.0
2015-Jul-23 03:33N 48°29' W 122°41'0 0.0
2015-Jul-23 02:33N 48°29' W 122°41'0 0.0
2015-Jul-23 01:34N 48°29' W 122°41'0 0.0
2015-Jul-23 00:33N 48°29' W 122°41'0 0.0
2015-Jul-22 23:33N 48°29' W 122°41'0 0.0
2015-Jul-22 22:33N 48°29' W 122°41'0 0.0
2015-Jul-22 21:33N 48°29' W 122°41'0 0.0
2015-Jul-22 20:34N 48°29' W 122°41'0 0.1
2015-Jul-22 19:34N 48°29' W 122°41'1 1.1
2015-Jul-22 18:34N 48°29' W 122°42'1 1.4
2015-Jul-22 17:34N 48°30' W 122°44'1 1.4
2015-Jul-22 16:33N 48°31' W 122°46'1 0.9
2015-Jul-22 15:34N 48°32' W 122°47'1 1.4
2015-Jul-22 14:34N 48°32' W 122°49'1 1.3
2015-Jul-22 13:34N 48°31' W 122°51'1 1.3
2015-Jul-22 12:33N 48°30' W 122°52'0 0.0
2015-Jul-22 11:33N 48°30' W 122°52'0 0.0
2015-Jul-22 10:34N 48°30' W 122°52'0 0.0
2015-Jul-22 09:34N 48°30' W 122°52'0 0.0
2015-Jul-22 08:33N 48°30' W 122°52'0 0.0
2015-Jul-22 07:34N 48°30' W 122°52'0 0.0
2015-Jul-22 06:34N 48°30' W 122°52'0 0.0
2015-Jul-22 05:33N 48°30' W 122°52'0 0.0
2015-Jul-22 04:34N 48°30' W 122°52'0 0.0
2015-Jul-22 03:34N 48°30' W 122°52'0 0.0
2015-Jul-22 02:34N 48°30' W 122°52'0 0.0
2015-Jul-22 01:34N 48°30' W 122°52'0 0.0
2015-Jul-22 00:34N 48°30' W 122°52'0 0.0
2015-Jul-21 23:34N 48°30' W 122°52'0 0.0
2015-Jul-21 22:34N 48°30' W 122°52'0 0.0
2015-Jul-21 21:34N 48°30' W 122°52'0 0.0
2015-Jul-21 20:33N 48°30' W 122°52'0 0.0
2015-Jul-21 19:33N 48°30' W 122°52'0 0.0
2015-Jul-21 18:33N 48°30' W 122°52'0 0.0
2015-Jul-21 17:34N 48°30' W 122°52'0 0.0
2015-Jul-21 16:34N 48°30' W 122°52'0 0.0
2015-Jul-21 15:33N 48°30' W 122°52'0 0.0
2015-Jul-21 14:33N 48°30' W 122°52'0 0.0
2015-Jul-21 13:34N 48°30' W 122°52'0 0.0
2015-Jul-21 12:34N 48°30' W 122°52'0 0.0
2015-Jul-21 11:33N 48°30' W 122°52'0 0.0
2015-Jul-21 10:34N 48°30' W 122°52'0 0.0
2015-Jul-21 09:33N 48°30' W 122°52'0 0.0
2015-Jul-21 08:32N 48°30' W 122°52'0 0.0
2015-Jul-21 07:34N 48°30' W 122°52'0 0.0
2015-Jul-21 06:33N 48°30' W 122°52'0 0.0
2015-Jul-21 05:34N 48°30' W 122°52'0 0.0
2015-Jul-21 04:33N 48°30' W 122°52'0 0.0
2015-Jul-21 03:34N 48°30' W 122°52'1 0.6
2015-Jul-21 02:32N 48°31' W 122°52'0 0.5
2015-Jul-21 01:33N 48°31' W 122°51'0 0.2
2015-Jul-21 00:33N 48°31' W 122°51'0 0.2
2015-Jul-20 23:33N 48°31' W 122°51'0 0.2
2015-Jul-20 22:33N 48°31' W 122°51'0 0.1
2015-Jul-20 21:33N 48°31' W 122°51'0 0.0
2015-Jul-20 20:33N 48°31' W 122°51'0 0.0
2015-Jul-20 19:33N 48°31' W 122°51'0 0.0
2015-Jul-20 18:33N 48°31' W 122°51'0 0.0
2015-Jul-20 17:33N 48°31' W 122°51'0 0.0
2015-Jul-20 16:33N 48°31' W 122°51'0 0.0
2015-Jul-20 15:33N 48°31' W 122°51'0 0.0
2015-Jul-20 14:33N 48°31' W 122°51'0 0.0
2015-Jul-20 13:33N 48°31' W 122°51'0 0.0
2015-Jul-20 12:33N 48°31' W 122°51'0 0.0
2015-Jul-20 11:33N 48°31' W 122°51'0 0.0
2015-Jul-20 10:33N 48°31' W 122°51'0 0.0
2015-Jul-20 09:33N 48°31' W 122°51'0 0.0
2015-Jul-20 08:33N 48°31' W 122°51'0 0.0
2015-Jul-20 07:33N 48°31' W 122°51'0 0.0
2015-Jul-20 06:33N 48°31' W 122°51'0 0.0
2015-Jul-20 05:32N 48°31' W 122°51'0 0.0
2015-Jul-20 04:33N 48°31' W 122°51'0 0.0
2015-Jul-20 03:33N 48°31' W 122°51'0 0.0
2015-Jul-20 02:33N 48°31' W 122°51'0 0.0
2015-Jul-20 01:33N 48°31' W 122°51'0 0.0
2015-Jul-20 00:33N 48°31' W 122°51'0 0.0
2015-Jul-19 23:33N 48°31' W 122°51'0 0.0
2015-Jul-19 22:33N 48°31' W 122°51'0 0.0
2015-Jul-19 21:33N 48°31' W 122°51'0 0.1
2015-Jul-19 20:33N 48°31' W 122°51'0 0.5
2015-Jul-19 19:33N 48°32' W 122°51'2 1.8
2015-Jul-19 18:33N 48°33' W 122°51'1 1.3
2015-Jul-19 17:33N 48°34' W 122°52'1 1.1
2015-Jul-19 16:33N 48°35' W 122°54'2 1.9
2015-Jul-19 15:33N 48°35' W 122°56'1 1.4
2015-Jul-19 14:33N 48°36' W 122°58'1 1.1
2015-Jul-19 13:33N 48°35' W 123°00'1 0.9
2015-Jul-19 12:33N 48°36' W 123°00'0 0.0
2015-Jul-19 11:33N 48°36' W 123°00'0 0.0
2015-Jul-19 10:33N 48°36' W 123°00'0 0.0
2015-Jul-19 09:33N 48°36' W 123°00'0 0.0
2015-Jul-19 08:33N 48°36' W 123°00'0 0.0
2015-Jul-19 07:33N 48°36' W 123°00'0 0.0
2015-Jul-19 06:33N 48°36' W 123°00'1 0.9
2015-Jul-19 05:33N 48°37' W 123°02'  

Dump ship's entire track history